Terminal Aerodrome Forecast
Issued by NWS Cleveland, OH

Home | Current Version | Previous Version | Text Only | Print | Product List | Glossary Off
Versions: 1 2 3 4 5 6 7 8 9 10 11 12 13 14 15 16 17

000
FTUS41 KCLE 251700
TAFTOL
TAF
KTOL 251739Z 2518/2618 VRB04KT P6SM BKN200
     FM252200 05004KT P6SM OVC080
     FM260900 03006KT 3SM -SN OVC025
     FM261100 03008KT 1SM -SN BR OVC010
     FM261600 01008KT 5SM -SN BR OVC015=

USA.gov is the U.S. government's official web portal to all federal, state and local government web resources and services.